Terminal Aerodrome Forecast
Issued by NWS

Home | Current Version | Previous Version | Text Only | Print | Product List | Glossary On
Versions: 1 2 3 4 5 6 7 8 9 10 11 12
000
FTUS45 KFGZ 192320
TAFSEZ
TAF
KSEZ 192320Z 2000/2024 20012G22KT P6SM SCT250
     FM200130 VRB05KT P6SM FEW250
     FM201500 16010KT P6SM SKC
     FM201800 19008G18KT P6SM SKC=

USA.gov is the U.S. government's official web portal to all federal, state and local government web resources and services.